sensor_id;sensor_type;location;lat;lon;timestamp;P1;durP1;ratioP1;P2;durP2;ratioP2
29500;SDS011;16450;50.288;10.966;2023-10-13T00:00:30;17.40;;;9.97;;
29500;SDS011;16450;50.288;10.966;2023-10-13T00:03:35;17.20;;;10.57;;
29500;SDS011;16450;50.288;10.966;2023-10-13T00:06:38;19.93;;;11.10;;
29500;SDS011;16450;50.288;10.966;2023-10-13T00:09:40;17.40;;;10.53;;
29500;SDS011;16450;50.288;10.966;2023-10-13T00:12:42;19.03;;;9.70;;
29500;SDS011;16450;50.288;10.966;2023-10-13T00:15:51;18.37;;;10.10;;
29500;SDS011;16450;50.288;10.966;2023-10-13T00:18:59;16.23;;;9.70;;
29500;SDS011;16450;50.288;10.966;2023-10-13T00:22:01;17.77;;;10.03;;
29500;SDS011;16450;50.288;10.966;2023-10-13T00:25:10;19.70;;;9.93;;
29500;SDS011;16450;50.288;10.966;2023-10-13T00:28:28;18.53;;;9.73;;
29500;SDS011;16450;50.288;10.966;2023-10-13T00:31:47;19.90;;;10.03;;
29500;SDS011;16450;50.288;10.966;2023-10-13T00:34:50;18.80;;;9.53;;
29500;SDS011;16450;50.288;10.966;2023-10-13T00:37:57;16.37;;;10.57;;
29500;SDS011;16450;50.288;10.966;2023-10-13T00:41:14;17.90;;;10.10;;
29500;SDS011;16450;50.288;10.966;2023-10-13T00:44:18;17.77;;;10.37;;
29500;SDS011;16450;50.288;10.966;2023-10-13T00:47:39;18.70;;;9.93;;
29500;SDS011;16450;50.288;10.966;2023-10-13T00:50:41;16.20;;;10.27;;
29500;SDS011;16450;50.288;10.966;2023-10-13T00:53:46;18.00;;;9.93;;
29500;SDS011;16450;50.288;10.966;2023-10-13T00:56:49;18.77;;;9.67;;
29500;SDS011;16450;50.288;10.966;2023-10-13T00:59:59;16.10;;;8.60;;
29500;SDS011;16450;50.288;10.966;2023-10-13T01:03:20;16.90;;;10.23;;
29500;SDS011;16450;50.288;10.966;2023-10-13T01:06:27;17.10;;;9.43;;
29500;SDS011;16450;50.288;10.966;2023-10-13T01:09:30;16.47;;;9.47;;
29500;SDS011;16450;50.288;10.966;2023-10-13T01:12:43;16.27;;;9.70;;
29500;SDS011;16450;50.288;10.966;2023-10-13T01:15:47;15.87;;;10.17;;
29500;SDS011;16450;50.288;10.966;2023-10-13T01:18:49;17.30;;;9.53;;
29500;SDS011;16450;50.288;10.966;2023-10-13T01:21:52;16.83;;;9.83;;
29500;SDS011;16450;50.288;10.966;2023-10-13T01:24:58;17.83;;;8.97;;
29500;SDS011;16450;50.288;10.966;2023-10-13T01:28:14;16.57;;;9.80;;
29500;SDS011;16450;50.288;10.966;2023-10-13T01:31:19;13.60;;;9.13;;
29500;SDS011;16450;50.288;10.966;2023-10-13T01:34:32;17.07;;;9.70;;
29500;SDS011;16450;50.288;10.966;2023-10-13T01:37:35;15.83;;;9.53;;
29500;SDS011;16450;50.288;10.966;2023-10-13T01:40:37;15.80;;;9.53;;
29500;SDS011;16450;50.288;10.966;2023-10-13T01:43:39;16.53;;;10.20;;
29500;SDS011;16450;50.288;10.966;2023-10-13T01:46:41;13.90;;;8.83;;
29500;SDS011;16450;50.288;10.966;2023-10-13T01:49:44;15.10;;;9.10;;
29500;SDS011;16450;50.288;10.966;2023-10-13T01:52:52;15.60;;;9.37;;
29500;SDS011;16450;50.288;10.966;2023-10-13T01:56:01;19.20;;;9.83;;
29500;SDS011;16450;50.288;10.966;2023-10-13T01:59:07;12.40;;;8.53;;
29500;SDS011;16450;50.288;10.966;2023-10-13T02:02:10;17.40;;;9.27;;
29500;SDS011;16450;50.288;10.966;2023-10-13T02:05:14;15.00;;;9.27;;
29500;SDS011;16450;50.288;10.966;2023-10-13T02:08:19;15.03;;;9.07;;
29500;SDS011;16450;50.288;10.966;2023-10-13T02:11:25;18.57;;;9.57;;
29500;SDS011;16450;50.288;10.966;2023-10-13T02:14:27;17.97;;;9.40;;
29500;SDS011;16450;50.288;10.966;2023-10-13T02:17:30;15.67;;;8.97;;
29500;SDS011;16450;50.288;10.966;2023-10-13T02:20:41;16.40;;;9.63;;
29500;SDS011;16450;50.288;10.966;2023-10-13T02:23:44;17.63;;;10.43;;
29500;SDS011;16450;50.288;10.966;2023-10-13T02:26:47;14.47;;;9.23;;
29500;SDS011;16450;50.288;10.966;2023-10-13T02:29:49;17.13;;;8.77;;
29500;SDS011;16450;50.288;10.966;2023-10-13T02:32:55;17.43;;;9.20;;
29500;SDS011;16450;50.288;10.966;2023-10-13T02:35:59;18.03;;;9.57;;
29500;SDS011;16450;50.288;10.966;2023-10-13T02:39:07;20.97;;;10.47;;
29500;SDS011;16450;50.288;10.966;2023-10-13T02:42:09;15.57;;;10.37;;
29500;SDS011;16450;50.288;10.966;2023-10-13T02:45:17;18.73;;;10.40;;
29500;SDS011;16450;50.288;10.966;2023-10-13T02:48:24;19.33;;;10.13;;
29500;SDS011;16450;50.288;10.966;2023-10-13T02:51:27;16.80;;;10.00;;
29500;SDS011;16450;50.288;10.966;2023-10-13T02:54:37;18.97;;;11.67;;
29500;SDS011;16450;50.288;10.966;2023-10-13T02:57:44;15.23;;;10.27;;
29500;SDS011;16450;50.288;10.966;2023-10-13T03:00:46;19.40;;;10.63;;
29500;SDS011;16450;50.288;10.966;2023-10-13T03:03:49;16.50;;;9.93;;
29500;SDS011;16450;50.288;10.966;2023-10-13T03:06:55;17.17;;;9.63;;
29500;SDS011;16450;50.288;10.966;2023-10-13T03:10:01;18.97;;;10.37;;
29500;SDS011;16450;50.288;10.966;2023-10-13T03:13:11;16.93;;;10.70;;
29500;SDS011;16450;50.288;10.966;2023-10-13T03:16:14;17.50;;;10.10;;
29500;SDS011;16450;50.288;10.966;2023-10-13T03:19:21;16.67;;;9.73;;
29500;SDS011;16450;50.288;10.966;2023-10-13T03:22:24;17.73;;;9.73;;
29500;SDS011;16450;50.288;10.966;2023-10-13T03:25:33;19.67;;;9.63;;
29500;SDS011;16450;50.288;10.966;2023-10-13T03:28:44;13.10;;;7.97;;
29500;SDS011;16450;50.288;10.966;2023-10-13T03:31:52;15.17;;;8.73;;
29500;SDS011;16450;50.288;10.966;2023-10-13T03:35:08;16.10;;;10.20;;
29500;SDS011;16450;50.288;10.966;2023-10-13T03:38:15;19.50;;;10.00;;
29500;SDS011;16450;50.288;10.966;2023-10-13T03:41:19;16.40;;;10.07;;
29500;SDS011;16450;50.288;10.966;2023-10-13T03:44:26;17.57;;;10.43;;
29500;SDS011;16450;50.288;10.966;2023-10-13T03:47:31;14.90;;;9.07;;
29500;SDS011;16450;50.288;10.966;2023-10-13T03:50:34;17.23;;;9.67;;
29500;SDS011;16450;50.288;10.966;2023-10-13T03:53:59;18.63;;;10.07;;
29500;SDS011;16450;50.288;10.966;2023-10-13T03:57:08;17.37;;;9.70;;
29500;SDS011;16450;50.288;10.966;2023-10-13T04:00:14;19.03;;;10.17;;
29500;SDS011;16450;50.288;10.966;2023-10-13T04:03:24;19.90;;;10.13;;
29500;SDS011;16450;50.288;10.966;2023-10-13T04:06:34;14.63;;;9.10;;
29500;SDS011;16450;50.288;10.966;2023-10-13T04:09:49;15.47;;;8.80;;
29500;SDS011;16450;50.288;10.966;2023-10-13T04:12:50;20.10;;;10.53;;
29500;SDS011;16450;50.288;10.966;2023-10-13T04:16:11;18.33;;;9.77;;
29500;SDS011;16450;50.288;10.966;2023-10-13T04:19:36;16.30;;;9.77;;
29500;SDS011;16450;50.288;10.966;2023-10-13T04:22:58;17.03;;;10.17;;
29500;SDS011;16450;50.288;10.966;2023-10-13T04:26:04;19.93;;;10.80;;
29500;SDS011;16450;50.288;10.966;2023-10-13T04:29:10;22.47;;;11.33;;
29500;SDS011;16450;50.288;10.966;2023-10-13T04:32:32;15.83;;;9.77;;
29500;SDS011;16450;50.288;10.966;2023-10-13T04:35:39;19.33;;;10.37;;
29500;SDS011;16450;50.288;10.966;2023-10-13T04:38:49;16.97;;;10.20;;
29500;SDS011;16450;50.288;10.966;2023-10-13T04:42:10;14.87;;;9.90;;
29500;SDS011;16450;50.288;10.966;2023-10-13T04:45:17;19.40;;;10.20;;
29500;SDS011;16450;50.288;10.966;2023-10-13T04:48:39;15.23;;;9.77;;
29500;SDS011;16450;50.288;10.966;2023-10-13T04:51:49;19.37;;;10.40;;
29500;SDS011;16450;50.288;10.966;2023-10-13T04:54:54;17.60;;;10.57;;
29500;SDS011;16450;50.288;10.966;2023-10-13T04:57:56;17.77;;;10.37;;
29500;SDS011;16450;50.288;10.966;2023-10-13T05:01:33;17.27;;;10.27;;
29500;SDS011;16450;50.288;10.966;2023-10-13T05:05:02;17.30;;;10.57;;
29500;SDS011;16450;50.288;10.966;2023-10-13T05:08:07;20.57;;;11.57;;
29500;SDS011;16450;50.288;10.966;2023-10-13T05:11:28;16.13;;;9.90;;
29500;SDS011;16450;50.288;10.966;2023-10-13T05:14:48;17.37;;;10.23;;
29500;SDS011;16450;50.288;10.966;2023-10-13T05:18:09;17.33;;;10.23;;
29500;SDS011;16450;50.288;10.966;2023-10-13T05:21:29;15.80;;;9.57;;
29500;SDS011;16450;50.288;10.966;2023-10-13T05:24:50;15.70;;;9.43;;
29500;SDS011;16450;50.288;10.966;2023-10-13T05:28:10;16.97;;;9.80;;
29500;SDS011;16450;50.288;10.966;2023-10-13T05:31:36;15.37;;;9.80;;
29500;SDS011;16450;50.288;10.966;2023-10-13T05:34:56;17.40;;;10.17;;
29500;SDS011;16450;50.288;10.966;2023-10-13T05:38:17;18.53;;;9.73;;
29500;SDS011;16450;50.288;10.966;2023-10-13T05:41:37;14.97;;;10.10;;
29500;SDS011;16450;50.288;10.966;2023-10-13T05:44:58;17.77;;;10.37;;
29500;SDS011;16450;50.288;10.966;2023-10-13T05:48:20;14.77;;;9.83;;
29500;SDS011;16450;50.288;10.966;2023-10-13T05:51:36;18.83;;;10.80;;
29500;SDS011;16450;50.288;10.966;2023-10-13T05:54:53;16.77;;;10.90;;
29500;SDS011;16450;50.288;10.966;2023-10-13T05:58:14;13.87;;;9.73;;
29500;SDS011;16450;50.288;10.966;2023-10-13T06:01:36;19.70;;;10.20;;
29500;SDS011;16450;50.288;10.966;2023-10-13T06:04:56;18.00;;;10.20;;
29500;SDS011;16450;50.288;10.966;2023-10-13T06:08:17;19.40;;;10.00;;
29500;SDS011;16450;50.288;10.966;2023-10-13T06:11:37;16.70;;;9.87;;
29500;SDS011;16450;50.288;10.966;2023-10-13T06:14:58;16.90;;;10.87;;
29500;SDS011;16450;50.288;10.966;2023-10-13T06:18:19;22.23;;;10.77;;
29500;SDS011;16450;50.288;10.966;2023-10-13T06:21:39;17.23;;;10.50;;
29500;SDS011;16450;50.288;10.966;2023-10-13T06:25:00;18.63;;;10.97;;
29500;SDS011;16450;50.288;10.966;2023-10-13T06:28:21;20.77;;;10.40;;
29500;SDS011;16450;50.288;10.966;2023-10-13T06:31:41;21.63;;;10.60;;
29500;SDS011;16450;50.288;10.966;2023-10-13T06:34:47;16.53;;;10.20;;
29500;SDS011;16450;50.288;10.966;2023-10-13T06:37:50;17.67;;;10.30;;
29500;SDS011;16450;50.288;10.966;2023-10-13T06:40:52;19.97;;;11.07;;
29500;SDS011;16450;50.288;10.966;2023-10-13T06:43:54;21.00;;;10.33;;
29500;SDS011;16450;50.288;10.966;2023-10-13T06:47:02;17.57;;;9.80;;
29500;SDS011;16450;50.288;10.966;2023-10-13T06:50:06;19.63;;;10.67;;
29500;SDS011;16450;50.288;10.966;2023-10-13T06:53:16;19.57;;;10.77;;
29500;SDS011;16450;50.288;10.966;2023-10-13T06:56:18;16.83;;;10.90;;
29500;SDS011;16450;50.288;10.966;2023-10-13T06:59:23;18.30;;;10.07;;
29500;SDS011;16450;50.288;10.966;2023-10-13T07:02:28;19.43;;;10.67;;
29500;SDS011;16450;50.288;10.966;2023-10-13T07:05:36;16.83;;;10.40;;
29500;SDS011;16450;50.288;10.966;2023-10-13T07:08:39;19.63;;;10.70;;
29500;SDS011;16450;50.288;10.966;2023-10-13T07:11:41;20.07;;;11.13;;
29500;SDS011;16450;50.288;10.966;2023-10-13T07:14:47;16.57;;;10.83;;
29500;SDS011;16450;50.288;10.966;2023-10-13T07:17:53;18.60;;;10.23;;
29500;SDS011;16450;50.288;10.966;2023-10-13T07:21:01;18.10;;;10.33;;
29500;SDS011;16450;50.288;10.966;2023-10-13T07:24:12;20.37;;;10.97;;
29500;SDS011;16450;50.288;10.966;2023-10-13T07:27:21;18.73;;;10.20;;
29500;SDS011;16450;50.288;10.966;2023-10-13T07:30:24;15.87;;;10.13;;
29500;SDS011;16450;50.288;10.966;2023-10-13T07:33:28;16.80;;;10.27;;
29500;SDS011;16450;50.288;10.966;2023-10-13T07:36:32;16.83;;;9.77;;
29500;SDS011;16450;50.288;10.966;2023-10-13T07:39:40;18.40;;;9.77;;
29500;SDS011;16450;50.288;10.966;2023-10-13T07:42:44;15.47;;;8.80;;
29500;SDS011;16450;50.288;10.966;2023-10-13T07:45:47;18.20;;;10.10;;
29500;SDS011;16450;50.288;10.966;2023-10-13T07:48:52;15.20;;;8.97;;
29500;SDS011;16450;50.288;10.966;2023-10-13T07:51:55;16.77;;;8.87;;
29500;SDS011;16450;50.288;10.966;2023-10-13T07:54:58;17.10;;;8.90;;
29500;SDS011;16450;50.288;10.966;2023-10-13T07:58:14;14.97;;;9.23;;
29500;SDS011;16450;50.288;10.966;2023-10-13T08:01:16;17.93;;;9.07;;
29500;SDS011;16450;50.288;10.966;2023-10-13T08:04:21;15.13;;;8.60;;
29500;SDS011;16450;50.288;10.966;2023-10-13T08:07:30;17.27;;;9.00;;
29500;SDS011;16450;50.288;10.966;2023-10-13T08:10:36;17.60;;;9.07;;
29500;SDS011;16450;50.288;10.966;2023-10-13T08:13:41;16.57;;;8.20;;
29500;SDS011;16450;50.288;10.966;2023-10-13T08:17:08;17.33;;;8.30;;
29500;SDS011;16450;50.288;10.966;2023-10-13T08:20:13;12.90;;;8.70;;
29500;SDS011;16450;50.288;10.966;2023-10-13T08:23:18;15.30;;;8.60;;
29500;SDS011;16450;50.288;10.966;2023-10-13T08:26:35;13.50;;;8.37;;
29500;SDS011;16450;50.288;10.966;2023-10-13T08:29:37;15.20;;;8.00;;
29500;SDS011;16450;50.288;10.966;2023-10-13T08:32:58;11.97;;;8.07;;
29500;SDS011;16450;50.288;10.966;2023-10-13T08:36:18;14.27;;;7.97;;
29500;SDS011;16450;50.288;10.966;2023-10-13T08:39:30;15.87;;;8.80;;
29500;SDS011;16450;50.288;10.966;2023-10-13T08:42:51;13.70;;;8.10;;
29500;SDS011;16450;50.288;10.966;2023-10-13T08:46:05;12.03;;;7.70;;
29500;SDS011;16450;50.288;10.966;2023-10-13T08:49:09;16.70;;;7.57;;
29500;SDS011;16450;50.288;10.966;2023-10-13T08:52:17;14.97;;;7.70;;
29500;SDS011;16450;50.288;10.966;2023-10-13T08:55:39;13.97;;;7.90;;
29500;SDS011;16450;50.288;10.966;2023-10-13T08:59:01;12.97;;;7.40;;
29500;SDS011;16450;50.288;10.966;2023-10-13T09:02:03;12.83;;;7.40;;
29500;SDS011;16450;50.288;10.966;2023-10-13T09:05:22;12.20;;;7.43;;
29500;SDS011;16450;50.288;10.966;2023-10-13T09:08:43;11.47;;;7.57;;
29500;SDS011;16450;50.288;10.966;2023-10-13T09:15:35;15.03;;;7.70;;
29500;SDS011;16450;50.288;10.966;2023-10-13T09:19:01;14.10;;;8.23;;
29500;SDS011;16450;50.288;10.966;2023-10-13T09:22:06;12.73;;;7.40;;
29500;SDS011;16450;50.288;10.966;2023-10-13T09:25:07;16.67;;;7.50;;
29500;SDS011;16450;50.288;10.966;2023-10-13T09:28:15;10.73;;;7.20;;
29500;SDS011;16450;50.288;10.966;2023-10-13T09:31:21;15.50;;;7.50;;
29500;SDS011;16450;50.288;10.966;2023-10-13T09:34:27;11.77;;;7.33;;
29500;SDS011;16450;50.288;10.966;2023-10-13T09:37:36;14.27;;;6.47;;
29500;SDS011;16450;50.288;10.966;2023-10-13T09:40:38;14.07;;;7.30;;
29500;SDS011;16450;50.288;10.966;2023-10-13T09:43:47;11.45;;;6.95;;
29500;SDS011;16450;50.288;10.966;2023-10-13T09:46:52;11.87;;;6.40;;
29500;SDS011;16450;50.288;10.966;2023-10-13T09:49:58;13.77;;;6.70;;
29500;SDS011;16450;50.288;10.966;2023-10-13T09:53:07;11.93;;;6.70;;
29500;SDS011;16450;50.288;10.966;2023-10-13T09:56:18;13.93;;;6.90;;
29500;SDS011;16450;50.288;10.966;2023-10-13T09:59:32;12.23;;;6.15;;
29500;SDS011;16450;50.288;10.966;2023-10-13T10:02:41;11.98;;;5.97;;
29500;SDS011;16450;50.288;10.966;2023-10-13T10:05:54;11.93;;;6.80;;
29500;SDS011;16450;50.288;10.966;2023-10-13T10:09:07;10.80;;;6.28;;
29500;SDS011;16450;50.288;10.966;2023-10-13T10:12:16;10.80;;;6.43;;
29500;SDS011;16450;50.288;10.966;2023-10-13T10:15:28;14.75;;;6.47;;
29500;SDS011;16450;50.288;10.966;2023-10-13T10:18:45;12.00;;;6.20;;
29500;SDS011;16450;50.288;10.966;2023-10-13T10:21:47;11.38;;;5.80;;
29500;SDS011;16450;50.288;10.966;2023-10-13T10:24:59;10.43;;;6.20;;
29500;SDS011;16450;50.288;10.966;2023-10-13T10:28:07;10.43;;;5.82;;
29500;SDS011;16450;50.288;10.966;2023-10-13T10:31:10;15.10;;;6.43;;
29500;SDS011;16450;50.288;10.966;2023-10-13T10:34:18;11.82;;;6.18;;
29500;SDS011;16450;50.288;10.966;2023-10-13T10:37:21;13.40;;;6.22;;
29500;SDS011;16450;50.288;10.966;2023-10-13T10:40:27;10.52;;;6.28;;
29500;SDS011;16450;50.288;10.966;2023-10-13T10:43:48;11.73;;;6.13;;
29500;SDS011;16450;50.288;10.966;2023-10-13T10:46:50;10.57;;;6.28;;
29500;SDS011;16450;50.288;10.966;2023-10-13T10:49:59;12.68;;;6.15;;
29500;SDS011;16450;50.288;10.966;2023-10-13T10:53:09;11.82;;;6.22;;
29500;SDS011;16450;50.288;10.966;2023-10-13T10:56:12;13.13;;;6.20;;
29500;SDS011;16450;50.288;10.966;2023-10-13T10:59:27;10.30;;;5.88;;
29500;SDS011;16450;50.288;10.966;2023-10-13T11:02:38;12.27;;;5.57;;
29500;SDS011;16450;50.288;10.966;2023-10-13T11:05:47;11.25;;;5.35;;
29500;SDS011;16450;50.288;10.966;2023-10-13T11:09:01;12.25;;;5.72;;
29500;SDS011;16450;50.288;10.966;2023-10-13T11:12:14;10.80;;;5.85;;
29500;SDS011;16450;50.288;10.966;2023-10-13T11:15:20;12.00;;;5.88;;
29500;SDS011;16450;50.288;10.966;2023-10-13T11:18:30;10.27;;;5.65;;
29500;SDS011;16450;50.288;10.966;2023-10-13T11:21:42;11.73;;;5.55;;
29500;SDS011;16450;50.288;10.966;2023-10-13T11:24:44;12.40;;;5.90;;
29500;SDS011;16450;50.288;10.966;2023-10-13T11:27:46;7.97;;;5.32;;
29500;SDS011;16450;50.288;10.966;2023-10-13T11:30:51;9.55;;;5.40;;
29500;SDS011;16450;50.288;10.966;2023-10-13T11:33:54;8.45;;;5.32;;
29500;SDS011;16450;50.288;10.966;2023-10-13T11:36:58;10.40;;;5.35;;
29500;SDS011;16450;50.288;10.966;2023-10-13T11:40:20;13.00;;;5.40;;
29500;SDS011;16450;50.288;10.966;2023-10-13T11:43:49;8.25;;;5.25;;
29500;SDS011;16450;50.288;10.966;2023-10-13T11:46:52;8.43;;;5.72;;
29500;SDS011;16450;50.288;10.966;2023-10-13T11:49:57;10.57;;;5.65;;
29500;SDS011;16450;50.288;10.966;2023-10-13T11:53:00;9.05;;;5.15;;
29500;SDS011;16450;50.288;10.966;2023-10-13T11:56:03;9.45;;;5.78;;
29500;SDS011;16450;50.288;10.966;2023-10-13T11:59:11;9.15;;;5.00;;
29500;SDS011;16450;50.288;10.966;2023-10-13T12:02:20;7.95;;;5.55;;
29500;SDS011;16450;50.288;10.966;2023-10-13T12:05:29;9.73;;;5.50;;
29500;SDS011;16450;50.288;10.966;2023-10-13T12:08:50;10.90;;;5.22;;
29500;SDS011;16450;50.288;10.966;2023-10-13T12:11:53;9.93;;;5.20;;
29500;SDS011;16450;50.288;10.966;2023-10-13T12:14:56;14.13;;;5.35;;
29500;SDS011;16450;50.288;10.966;2023-10-13T12:17:58;8.70;;;5.20;;
29500;SDS011;16450;50.288;10.966;2023-10-13T12:21:07;11.55;;;5.13;;
29500;SDS011;16450;50.288;10.966;2023-10-13T12:24:12;11.43;;;5.30;;
29500;SDS011;16450;50.288;10.966;2023-10-13T12:27:33;9.35;;;5.25;;
29500;SDS011;16450;50.288;10.966;2023-10-13T12:30:48;9.88;;;5.10;;
29500;SDS011;16450;50.288;10.966;2023-10-13T12:33:50;10.00;;;5.20;;
29500;SDS011;16450;50.288;10.966;2023-10-13T12:36:53;10.27;;;5.00;;
29500;SDS011;16450;50.288;10.966;2023-10-13T12:40:12;10.18;;;5.30;;
29500;SDS011;16450;50.288;10.966;2023-10-13T12:43:37;10.50;;;5.72;;
29500;SDS011;16450;50.288;10.966;2023-10-13T12:47:05;7.93;;;5.00;;
29500;SDS011;16450;50.288;10.966;2023-10-13T12:50:26;7.57;;;4.82;;
29500;SDS011;16450;50.288;10.966;2023-10-13T12:53:48;6.70;;;4.70;;
29500;SDS011;16450;50.288;10.966;2023-10-13T12:56:51;8.68;;;5.15;;
29500;SDS011;16450;50.288;10.966;2023-10-13T12:59:58;13.55;;;5.25;;
29500;SDS011;16450;50.288;10.966;2023-10-13T13:03:00;8.90;;;4.35;;
29500;SDS011;16450;50.288;10.966;2023-10-13T13:06:19;7.85;;;4.45;;
29500;SDS011;16450;50.288;10.966;2023-10-13T13:09:28;8.32;;;4.47;;
29500;SDS011;16450;50.288;10.966;2023-10-13T13:12:30;8.77;;;4.68;;
29500;SDS011;16450;50.288;10.966;2023-10-13T13:15:32;8.23;;;4.43;;
29500;SDS011;16450;50.288;10.966;2023-10-13T13:18:34;9.10;;;4.40;;
29500;SDS011;16450;50.288;10.966;2023-10-13T13:21:39;6.55;;;4.38;;
29500;SDS011;16450;50.288;10.966;2023-10-13T13:24:41;7.70;;;4.13;;
29500;SDS011;16450;50.288;10.966;2023-10-13T13:27:47;7.80;;;4.30;;
29500;SDS011;16450;50.288;10.966;2023-10-13T13:30:49;11.23;;;4.90;;
29500;SDS011;16450;50.288;10.966;2023-10-13T13:33:56;7.60;;;4.50;;
29500;SDS011;16450;50.288;10.966;2023-10-13T13:36:58;9.65;;;4.30;;
29500;SDS011;16450;50.288;10.966;2023-10-13T13:40:05;7.60;;;4.60;;
29500;SDS011;16450;50.288;10.966;2023-10-13T13:43:23;7.65;;;4.10;;
29500;SDS011;16450;50.288;10.966;2023-10-13T13:46:52;11.02;;;4.10;;
29500;SDS011;16450;50.288;10.966;2023-10-13T13:49:54;7.00;;;4.40;;
29500;SDS011;16450;50.288;10.966;2023-10-13T13:52:57;7.15;;;4.40;;
29500;SDS011;16450;50.288;10.966;2023-10-13T13:56:00;7.10;;;4.25;;
29500;SDS011;16450;50.288;10.966;2023-10-13T13:59:03;9.45;;;3.95;;
29500;SDS011;16450;50.288;10.966;2023-10-13T14:02:09;9.90;;;4.05;;
29500;SDS011;16450;50.288;10.966;2023-10-13T14:05:21;5.18;;;3.80;;
29500;SDS011;16450;50.288;10.966;2023-10-13T14:08:23;7.65;;;3.85;;
29500;SDS011;16450;50.288;10.966;2023-10-13T14:11:27;9.30;;;3.88;;
29500;SDS011;16450;50.288;10.966;2023-10-13T14:14:40;10.38;;;4.28;;
29500;SDS011;16450;50.288;10.966;2023-10-13T14:17:49;9.40;;;4.35;;
29500;SDS011;16450;50.288;10.966;2023-10-13T14:20:51;7.95;;;4.20;;
29500;SDS011;16450;50.288;10.966;2023-10-13T14:23:53;8.40;;;4.18;;
29500;SDS011;16450;50.288;10.966;2023-10-13T14:26:55;8.40;;;4.10;;
29500;SDS011;16450;50.288;10.966;2023-10-13T14:29:57;7.43;;;4.20;;
29500;SDS011;16450;50.288;10.966;2023-10-13T14:32:59;6.85;;;3.65;;
29500;SDS011;16450;50.288;10.966;2023-10-13T14:36:03;9.95;;;4.15;;
29500;SDS011;16450;50.288;10.966;2023-10-13T14:39:06;7.07;;;4.18;;
29500;SDS011;16450;50.288;10.966;2023-10-13T14:42:11;9.77;;;4.38;;
29500;SDS011;16450;50.288;10.966;2023-10-13T14:45:16;7.70;;;4.30;;
29500;SDS011;16450;50.288;10.966;2023-10-13T14:48:18;9.63;;;4.47;;
29500;SDS011;16450;50.288;10.966;2023-10-13T14:51:20;7.53;;;4.22;;
29500;SDS011;16450;50.288;10.966;2023-10-13T14:54:22;7.85;;;4.20;;
29500;SDS011;16450;50.288;10.966;2023-10-13T14:57:36;8.43;;;4.22;;
29500;SDS011;16450;50.288;10.966;2023-10-13T15:00:39;8.35;;;4.22;;
29500;SDS011;16450;50.288;10.966;2023-10-13T15:03:43;10.00;;;4.50;;
29500;SDS011;16450;50.288;10.966;2023-10-13T15:06:46;9.02;;;4.63;;
29500;SDS011;16450;50.288;10.966;2023-10-13T15:09:48;7.10;;;4.60;;
29500;SDS011;16450;50.288;10.966;2023-10-13T15:12:50;20.45;;;12.75;;
29500;SDS011;16450;50.288;10.966;2023-10-13T15:15:52;13.93;;;6.55;;
29500;SDS011;16450;50.288;10.966;2023-10-13T15:18:54;10.23;;;5.70;;
29500;SDS011;16450;50.288;10.966;2023-10-13T15:21:57;10.10;;;5.53;;
29500;SDS011;16450;50.288;10.966;2023-10-13T15:25:00;9.27;;;4.93;;
29500;SDS011;16450;50.288;10.966;2023-10-13T15:28:11;7.50;;;4.33;;
29500;SDS011;16450;50.288;10.966;2023-10-13T15:31:15;8.07;;;4.37;;
29500;SDS011;16450;50.288;10.966;2023-10-13T15:34:36;9.33;;;4.60;;
29500;SDS011;16450;50.288;10.966;2023-10-13T15:37:41;9.93;;;4.63;;
29500;SDS011;16450;50.288;10.966;2023-10-13T15:40:48;15.47;;;5.23;;
29500;SDS011;16450;50.288;10.966;2023-10-13T15:43:56;12.43;;;5.10;;
29500;SDS011;16450;50.288;10.966;2023-10-13T15:46:58;9.10;;;5.03;;
29500;SDS011;16450;50.288;10.966;2023-10-13T15:50:06;12.47;;;5.10;;
29500;SDS011;16450;50.288;10.966;2023-10-13T15:53:08;7.20;;;4.60;;
29500;SDS011;16450;50.288;10.966;2023-10-13T15:56:14;10.10;;;4.77;;
29500;SDS011;16450;50.288;10.966;2023-10-13T15:59:18;9.97;;;5.43;;
29500;SDS011;16450;50.288;10.966;2023-10-13T16:02:20;12.50;;;5.37;;
29500;SDS011;16450;50.288;10.966;2023-10-13T16:05:29;8.07;;;4.60;;
29500;SDS011;16450;50.288;10.966;2023-10-13T16:08:36;10.93;;;5.80;;
29500;SDS011;16450;50.288;10.966;2023-10-13T16:11:42;10.17;;;5.40;;
29500;SDS011;16450;50.288;10.966;2023-10-13T16:14:44;13.57;;;5.90;;
29500;SDS011;16450;50.288;10.966;2023-10-13T16:17:47;9.80;;;5.37;;
29500;SDS011;16450;50.288;10.966;2023-10-13T16:20:49;23.17;;;10.87;;
29500;SDS011;16450;50.288;10.966;2023-10-13T16:23:52;15.37;;;8.00;;
29500;SDS011;16450;50.288;10.966;2023-10-13T16:26:54;13.53;;;6.43;;
29500;SDS011;16450;50.288;10.966;2023-10-13T16:29:58;13.03;;;6.10;;
29500;SDS011;16450;50.288;10.966;2023-10-13T16:32:59;10.33;;;5.50;;
29500;SDS011;16450;50.288;10.966;2023-10-13T16:36:02;12.27;;;5.63;;
29500;SDS011;16450;50.288;10.966;2023-10-13T16:39:13;10.40;;;5.10;;
29500;SDS011;16450;50.288;10.966;2023-10-13T16:42:24;10.50;;;5.67;;
29500;SDS011;16450;50.288;10.966;2023-10-13T16:45:26;12.87;;;5.50;;
29500;SDS011;16450;50.288;10.966;2023-10-13T16:48:33;11.50;;;5.37;;
29500;SDS011;16450;50.288;10.966;2023-10-13T16:51:35;34.43;;;21.87;;
29500;SDS011;16450;50.288;10.966;2023-10-13T16:54:38;18.30;;;9.93;;
29500;SDS011;16450;50.288;10.966;2023-10-13T16:57:50;12.57;;;7.10;;
29500;SDS011;16450;50.288;10.966;2023-10-13T17:00:53;14.00;;;6.23;;
29500;SDS011;16450;50.288;10.966;2023-10-13T17:03:55;10.33;;;5.83;;
29500;SDS011;16450;50.288;10.966;2023-10-13T17:06:57;9.97;;;5.43;;
29500;SDS011;16450;50.288;10.966;2023-10-13T17:09:59;9.00;;;5.47;;
29500;SDS011;16450;50.288;10.966;2023-10-13T17:13:03;10.63;;;5.37;;
29500;SDS011;16450;50.288;10.966;2023-10-13T17:19:14;9.70;;;5.80;;
29500;SDS011;16450;50.288;10.966;2023-10-13T17:22:16;9.57;;;5.10;;
29500;SDS011;16450;50.288;10.966;2023-10-13T17:25:18;10.57;;;5.27;;
29500;SDS011;16450;50.288;10.966;2023-10-13T17:28:21;10.20;;;5.90;;
29500;SDS011;16450;50.288;10.966;2023-10-13T17:31:23;10.47;;;5.73;;
29500;SDS011;16450;50.288;10.966;2023-10-13T17:34:28;9.60;;;5.30;;
29500;SDS011;16450;50.288;10.966;2023-10-13T17:37:30;11.33;;;5.27;;
29500;SDS011;16450;50.288;10.966;2023-10-13T17:40:37;9.07;;;5.33;;
29500;SDS011;16450;50.288;10.966;2023-10-13T17:43:40;9.90;;;5.50;;
29500;SDS011;16450;50.288;10.966;2023-10-13T17:46:42;9.33;;;5.47;;
29500;SDS011;16450;50.288;10.966;2023-10-13T17:49:44;9.67;;;5.60;;
29500;SDS011;16450;50.288;10.966;2023-10-13T17:52:46;11.60;;;5.70;;
29500;SDS011;16450;50.288;10.966;2023-10-13T17:55:49;12.10;;;5.53;;
29500;SDS011;16450;50.288;10.966;2023-10-13T17:58:52;10.07;;;5.87;;
29500;SDS011;16450;50.288;10.966;2023-10-13T18:01:55;9.37;;;5.40;;
29500;SDS011;16450;50.288;10.966;2023-10-13T18:04:57;14.00;;;7.70;;
29500;SDS011;16450;50.288;10.966;2023-10-13T18:07:59;10.87;;;7.37;;
29500;SDS011;16450;50.288;10.966;2023-10-13T18:11:01;9.30;;;5.73;;
29500;SDS011;16450;50.288;10.966;2023-10-13T18:14:04;11.10;;;5.70;;
29500;SDS011;16450;50.288;10.966;2023-10-13T18:17:07;10.23;;;5.80;;
29500;SDS011;16450;50.288;10.966;2023-10-13T18:20:10;8.20;;;5.77;;
29500;SDS011;16450;50.288;10.966;2023-10-13T18:23:16;11.63;;;5.60;;
29500;SDS011;16450;50.288;10.966;2023-10-13T18:26:19;13.30;;;5.57;;